createdAt,value
2022-09-13T00:02:07.960Z,7.03
2022-09-13T00:04:35.901Z,7.00
2022-09-13T00:07:03.861Z,7.07
2022-09-13T00:09:33.111Z,6.77
2022-09-13T00:12:00.986Z,6.37
2022-09-13T00:14:28.916Z,7.17
2022-09-13T00:16:56.779Z,6.57
2022-09-13T00:19:24.844Z,6.23
2022-09-13T00:21:52.763Z,7.83
2022-09-13T00:24:20.614Z,6.63
2022-09-13T00:26:49.986Z,6.20
2022-09-13T00:29:17.948Z,6.63
2022-09-13T00:31:46.079Z,7.03
2022-09-13T00:34:14.067Z,10.23
2022-09-13T00:36:41.939Z,7.30
2022-09-13T00:39:10.505Z,7.50
2022-09-13T00:41:38.509Z,7.10
2022-09-13T00:44:46.183Z,7.70
2022-09-13T00:47:17.299Z,10.63
2022-09-13T00:49:47.995Z,6.67
2022-09-13T00:52:19.828Z,6.60
2022-09-13T00:54:53.053Z,6.87
2022-09-13T00:57:23.331Z,7.73
2022-09-13T00:59:57.966Z,7.63
2022-09-13T01:02:26.064Z,6.67
2022-09-13T01:04:54.004Z,6.73
2022-09-13T01:07:23.053Z,6.00
2022-09-13T01:09:53.978Z,5.73
2022-09-13T01:12:33.401Z,5.57
2022-09-13T01:15:06.402Z,6.73
2022-09-13T01:17:36.204Z,4.10
2022-09-13T01:20:06.157Z,3.97
2022-09-13T01:23:02.105Z,5.00
2022-09-13T01:25:57.481Z,4.93
2022-09-13T01:28:50.814Z,4.73
2022-09-13T01:31:28.814Z,5.40
2022-09-13T01:34:13.738Z,5.77
2022-09-13T01:37:00.184Z,7.07
2022-09-13T01:39:47.713Z,7.03
2022-09-13T01:42:23.277Z,5.00
2022-09-13T01:45:05.904Z,5.03
2022-09-13T01:47:45.068Z,5.07
2022-09-13T01:50:21.506Z,5.27
2022-09-13T01:52:55.487Z,4.27
2022-09-13T01:55:32.509Z,4.70
2022-09-13T01:58:10.320Z,4.83
2022-09-13T02:00:46.631Z,4.47
2022-09-13T02:03:20.709Z,4.30
2022-09-13T02:05:53.160Z,4.27
2022-09-13T02:08:26.636Z,4.10
2022-09-13T02:11:02.119Z,3.90
2022-09-13T02:13:36.425Z,4.60
2022-09-13T02:16:11.385Z,5.40
2022-09-13T02:18:42.859Z,4.93
2022-09-13T02:21:15.567Z,8.80
2022-09-13T02:23:49.353Z,8.53
2022-09-13T02:26:19.657Z,7.83
2022-09-13T02:28:52.678Z,4.73
2022-09-13T02:31:28.059Z,4.20
2022-09-13T02:34:00.538Z,5.50
2022-09-13T02:36:32.835Z,5.20
2022-09-13T02:39:03.709Z,5.43
2022-09-13T02:41:38.568Z,5.73
2022-09-13T02:44:10.637Z,7.70
2022-09-13T02:47:01.540Z,6.50
2022-09-13T02:49:41.860Z,6.63
2022-09-13T02:52:17.171Z,5.37
2022-09-13T02:54:54.585Z,5.67
2022-09-13T02:57:31.349Z,4.30
2022-09-13T03:00:00.076Z,4.93
2022-09-13T03:02:32.932Z,7.03
2022-09-13T03:05:03.175Z,5.37
2022-09-13T03:07:31.067Z,3.67
2022-09-13T03:10:02.279Z,5.30
2022-09-13T03:13:00.299Z,5.60
2022-09-13T03:15:48.662Z,4.73
2022-09-13T03:18:32.096Z,5.00
2022-09-13T03:21:09.169Z,8.07
2022-09-13T03:23:47.548Z,8.80
2022-09-13T03:26:31.583Z,7.00
2022-09-13T03:29:12.266Z,8.90
2022-09-13T03:31:50.647Z,25.07
2022-09-13T03:34:29.207Z,12.07
2022-09-13T03:37:05.217Z,5.97
2022-09-13T03:39:38.520Z,12.23
2022-09-13T03:42:14.208Z,18.97
2022-09-13T03:44:46.042Z,15.30
2022-09-13T03:47:15.550Z,24.77
2022-09-13T03:49:44.532Z,37.93
2022-09-13T03:52:14.672Z,16.90
2022-09-13T03:54:42.595Z,19.87
2022-09-13T03:57:13.375Z,20.33
2022-09-13T03:59:45.469Z,53.73
2022-09-13T04:02:13.618Z,23.77
2022-09-13T04:04:42.688Z,11.70
2022-09-13T04:07:12.330Z,57.50
2022-09-13T04:09:41.768Z,25.40
2022-09-13T04:12:11.008Z,47.97
2022-09-13T04:14:39.188Z,90.30
2022-09-13T04:17:07.496Z,37.37
2022-09-13T04:19:35.396Z,64.67
2022-09-13T04:22:03.700Z,24.93
2022-09-13T04:24:32.318Z,35.87
2022-09-13T04:27:02.723Z,14.20
2022-09-13T04:29:31.948Z,13.93
2022-09-13T04:32:00.828Z,19.57
2022-09-13T04:34:28.948Z,20.73
2022-09-13T04:36:57.144Z,30.60
2022-09-13T04:39:25.035Z,20.67
2022-09-13T04:41:55.341Z,10.33
2022-09-13T04:44:25.034Z,14.50
2022-09-13T04:46:53.122Z,23.67
2022-09-13T04:49:22.141Z,18.53
2022-09-13T04:51:50.111Z,11.60
2022-09-13T04:54:18.233Z,6.73
2022-09-13T04:56:47.179Z,8.33
2022-09-13T04:59:15.524Z,21.83
2022-09-13T05:01:44.983Z,21.43
2022-09-13T05:04:13.196Z,24.60
2022-09-13T05:06:41.173Z,16.27
2022-09-13T05:09:11.904Z,15.30
2022-09-13T05:11:39.784Z,28.43
2022-09-13T05:14:07.742Z,13.93
2022-09-13T05:16:35.651Z,25.63
2022-09-13T05:19:04.971Z,27.27
2022-09-13T05:21:33.234Z,23.10
2022-09-13T05:24:01.557Z,18.43
2022-09-13T05:26:32.034Z,21.77
2022-09-13T05:29:00.093Z,10.53
2022-09-13T05:31:30.674Z,11.57
2022-09-13T05:34:01.068Z,13.40
2022-09-13T05:39:54.357Z,20.53
2022-09-13T05:42:11.111Z,10.67
2022-09-13T05:44:39.016Z,15.97
2022-09-13T05:47:07.226Z,10.80
2022-09-13T05:49:41.773Z,16.50
2022-09-13T05:52:19.268Z,20.30
2022-09-13T05:54:47.167Z,20.00
2022-09-13T05:57:15.026Z,14.20
2022-09-13T05:59:42.908Z,10.93
2022-09-13T06:02:11.288Z,9.80
2022-09-13T06:04:39.202Z,11.67
2022-09-13T06:07:07.120Z,15.30
2022-09-13T06:09:36.994Z,13.20
2022-09-13T06:12:05.189Z,8.50
2022-09-13T06:14:33.079Z,11.33
2022-09-13T06:17:01.019Z,9.70
2022-09-13T06:19:28.932Z,10.13
2022-09-13T06:21:56.816Z,12.87
2022-09-13T06:24:24.784Z,10.73
2022-09-13T06:26:54.355Z,8.57
2022-09-13T06:29:22.560Z,9.23
2022-09-13T06:31:50.516Z,11.37
2022-09-13T06:34:18.419Z,10.10
2022-09-13T06:36:46.458Z,9.17
2022-09-13T06:39:14.477Z,10.13
2022-09-13T06:41:42.659Z,10.70
2022-09-13T06:44:12.691Z,9.77
2022-09-13T06:46:40.987Z,9.80
2022-09-13T06:49:09.868Z,10.07
2022-09-13T06:51:38.023Z,9.27
2022-09-13T06:54:06.084Z,9.80
2022-09-13T06:56:36.044Z,9.17
2022-09-13T06:59:06.748Z,9.67
2022-09-13T07:01:38.191Z,9.47
2022-09-13T07:04:07.912Z,8.87
2022-09-13T07:06:38.068Z,8.53
2022-09-13T07:09:08.438Z,9.07
2022-09-13T07:11:38.257Z,10.63
2022-09-13T07:14:07.439Z,9.20
2022-09-13T07:16:38.540Z,8.30
2022-09-13T07:19:08.091Z,8.57
2022-09-13T07:21:36.797Z,9.70
2022-09-13T07:24:05.688Z,9.97
2022-09-13T07:26:33.645Z,9.67
2022-09-13T07:29:03.039Z,9.60
2022-09-13T07:31:32.667Z,9.47
2022-09-13T07:34:03.853Z,9.20
2022-09-13T07:36:33.979Z,8.87
2022-09-13T07:39:02.711Z,9.47
2022-09-13T07:41:31.601Z,10.17
2022-09-13T07:44:01.696Z,9.37
2022-09-13T07:46:32.829Z,10.40
2022-09-13T07:49:02.604Z,9.87
2022-09-13T07:51:31.769Z,11.03
2022-09-13T07:54:01.582Z,9.83
2022-09-13T07:56:31.110Z,10.57
2022-09-13T07:59:01.389Z,10.93
2022-09-13T08:01:30.793Z,10.27
2022-09-13T08:04:00.261Z,9.77
2022-09-13T08:06:31.773Z,9.67
2022-09-13T08:09:00.015Z,10.00
2022-09-13T08:11:31.232Z,9.43
2022-09-13T08:13:59.572Z,9.67
2022-09-13T08:16:28.813Z,9.53
2022-09-13T08:18:58.850Z,9.40
2022-09-13T08:21:33.049Z,9.10
2022-09-13T08:24:00.972Z,9.10
2022-09-13T08:26:29.263Z,9.18
2022-09-13T08:28:58.716Z,9.40
2022-09-13T08:31:27.597Z,8.02
2022-09-13T08:33:56.029Z,7.85
2022-09-13T08:36:24.957Z,7.57
2022-09-13T08:38:57.872Z,7.93
2022-09-13T08:41:55.251Z,7.28
2022-09-13T08:44:29.642Z,7.90
2022-09-13T08:47:05.189Z,6.65
2022-09-13T08:49:37.544Z,6.43
2022-09-13T08:52:17.947Z,6.70
2022-09-13T08:54:47.333Z,6.65
2022-09-13T08:57:22.229Z,6.97
2022-09-13T09:00:00.080Z,6.25
2022-09-13T09:02:52.983Z,6.15
2022-09-13T09:05:23.224Z,7.20
2022-09-13T09:07:54.505Z,6.10
2022-09-13T09:10:29.189Z,6.70
2022-09-13T09:13:00.691Z,6.47
2022-09-13T09:15:36.189Z,6.65
2022-09-13T09:18:10.753Z,6.57
2022-09-13T09:20:47.292Z,6.13
2022-09-13T09:23:21.345Z,5.85
2022-09-13T09:25:53.623Z,6.03
2022-09-13T09:28:21.600Z,6.30
2022-09-13T09:31:00.083Z,7.22
2022-09-13T09:33:42.473Z,6.70
2022-09-13T09:36:20.399Z,6.30
2022-09-13T09:38:48.596Z,6.40
2022-09-13T09:41:26.821Z,5.78
2022-09-13T09:44:01.006Z,6.25
2022-09-13T09:46:33.516Z,6.28
2022-09-13T09:49:33.855Z,6.13
2022-09-13T09:52:07.408Z,5.95
2022-09-13T09:54:39.101Z,6.47
2022-09-13T09:57:09.043Z,6.40
2022-09-13T09:59:37.304Z,6.68
2022-09-13T10:02:17.521Z,6.60
2022-09-13T10:04:56.813Z,7.28
2022-09-13T10:07:29.707Z,6.35
2022-09-13T10:10:06.566Z,7.38
2022-09-13T10:12:39.258Z,6.82
2022-09-13T10:15:17.361Z,6.95
2022-09-13T10:18:02.151Z,7.43
2022-09-13T10:20:31.588Z,7.47
2022-09-13T10:23:18.239Z,7.00
2022-09-13T10:25:59.174Z,7.22
2022-09-13T10:28:29.314Z,7.60
2022-09-13T10:31:00.015Z,6.50
2022-09-13T10:33:31.864Z,7.85
2022-09-13T10:36:02.752Z,7.32
2022-09-13T10:38:33.312Z,7.75
2022-09-13T10:41:04.627Z,8.52
2022-09-13T10:43:35.273Z,7.75
2022-09-13T10:46:06.535Z,7.23
2022-09-13T10:48:47.564Z,7.25
2022-09-13T10:51:36.899Z,7.50
2022-09-13T10:54:25.922Z,7.47
2022-09-13T10:56:53.912Z,7.80
2022-09-13T10:59:28.112Z,7.70
2022-09-13T11:02:25.929Z,7.27
2022-09-13T11:05:19.072Z,7.73
2022-09-13T11:08:23.344Z,7.57
2022-09-13T11:11:04.477Z,8.00
2022-09-13T11:13:44.495Z,7.60
2022-09-13T11:16:29.070Z,7.53
2022-09-13T11:19:12.724Z,7.37
2022-09-13T11:21:52.840Z,6.90
2022-09-13T11:24:37.247Z,7.17
2022-09-13T11:27:16.276Z,7.50
2022-09-13T11:30:00.457Z,7.23
2022-09-13T11:32:44.770Z,6.87
2022-09-13T11:35:31.544Z,6.17
2022-09-13T11:38:12.829Z,6.13
2022-09-13T11:40:44.775Z,6.50
2022-09-13T11:43:35.208Z,6.07
2022-09-13T11:46:11.258Z,6.43
2022-09-13T11:49:03.937Z,5.63
2022-09-13T11:51:43.720Z,6.47
2022-09-13T11:54:25.164Z,6.07
2022-09-13T11:56:58.096Z,6.20
2022-09-13T11:59:38.379Z,6.13
2022-09-13T12:02:23.042Z,6.00
2022-09-13T12:05:18.415Z,5.85
2022-09-13T12:07:50.680Z,6.53
2022-09-13T12:10:25.332Z,5.68
2022-09-13T12:12:55.285Z,5.85
2022-09-13T12:15:30.746Z,5.75
2022-09-13T12:18:03.945Z,5.32
2022-09-13T12:20:37.071Z,5.78
2022-09-13T12:23:11.509Z,5.75
2022-09-13T12:25:47.420Z,5.68
2022-09-13T12:28:20.647Z,5.85
2022-09-13T12:30:54.895Z,5.93
2022-09-13T12:33:23.105Z,6.03
2022-09-13T12:36:13.820Z,5.78
2022-09-13T12:39:18.067Z,5.70
2022-09-13T12:42:04.264Z,6.30
2022-09-13T12:44:59.899Z,6.13
2022-09-13T12:47:47.757Z,5.75
2022-09-13T12:50:47.900Z,6.95
2022-09-13T12:53:48.575Z,6.25
2022-09-13T12:56:41.009Z,6.32
2022-09-13T12:59:24.023Z,6.07
2022-09-13T13:01:52.747Z,7.72
2022-09-13T13:04:25.069Z,7.60
2022-09-13T13:06:56.223Z,7.60
2022-09-13T13:09:33.887Z,6.30
2022-09-13T13:12:02.107Z,7.97
2022-09-13T13:14:45.651Z,7.07
2022-09-13T13:17:35.992Z,6.17
2022-09-13T13:20:37.141Z,6.87
2022-09-13T13:23:15.852Z,6.03
2022-09-13T13:26:00.966Z,6.60
2022-09-13T13:29:15.790Z,7.13
2022-09-13T13:31:46.152Z,6.97
2022-09-13T13:34:38.176Z,7.20
2022-09-13T13:37:24.267Z,6.60
2022-09-13T13:40:13.299Z,6.80
2022-09-13T13:42:45.209Z,6.10
2022-09-13T13:45:32.009Z,6.57
2022-09-13T13:48:12.599Z,6.53
2022-09-13T13:51:17.986Z,7.03
2022-09-13T13:53:51.649Z,7.13
2022-09-13T13:56:30.982Z,6.93
2022-09-13T13:59:05.952Z,6.30
2022-09-13T14:01:37.729Z,6.33
2022-09-13T14:04:42.798Z,6.30
2022-09-13T14:07:29.497Z,6.20
2022-09-13T14:10:04.456Z,6.93
2022-09-13T14:12:44.835Z,6.70
2022-09-13T14:15:33.360Z,7.30
2022-09-13T14:18:32.469Z,6.60
2022-09-13T14:21:02.163Z,6.50
2022-09-13T14:23:30.574Z,6.70
2022-09-13T14:26:00.276Z,6.33
2022-09-13T14:28:28.872Z,6.70
2022-09-13T14:31:00.041Z,6.50
2022-09-13T14:33:32.214Z,8.23
2022-09-13T14:36:02.991Z,5.83
2022-09-13T14:38:35.404Z,6.23
2022-09-13T14:41:13.327Z,5.57
2022-09-13T14:43:42.233Z,6.30
2022-09-13T14:46:16.512Z,5.90
2022-09-13T14:48:51.523Z,5.77
2022-09-13T14:51:24.498Z,5.30
2022-09-13T14:53:56.464Z,5.23
2022-09-13T14:56:34.338Z,5.50
2022-09-13T14:59:06.800Z,5.57
2022-09-13T15:01:37.293Z,5.43
2022-09-13T15:04:07.361Z,5.90
2022-09-13T15:06:38.406Z,5.80
2022-09-13T15:09:18.811Z,6.37
2022-09-13T15:11:58.484Z,5.43
2022-09-13T15:14:31.157Z,6.20
2022-09-13T15:17:09.272Z,6.27
2022-09-13T15:19:42.277Z,6.30
2022-09-13T15:22:17.241Z,6.93
2022-09-13T15:24:48.179Z,8.53
2022-09-13T15:27:25.612Z,7.07
2022-09-13T15:29:55.698Z,6.10
2022-09-13T15:32:32.757Z,6.47
2022-09-13T15:35:02.781Z,6.93
2022-09-13T15:37:36.571Z,6.30
2022-09-13T15:40:17.441Z,9.03
2022-09-13T15:42:50.432Z,6.17
2022-09-13T15:45:19.201Z,6.93
2022-09-13T15:47:50.685Z,6.93
2022-09-13T15:50:24.929Z,6.00
2022-09-13T15:52:52.832Z,6.20
2022-09-13T15:55:20.752Z,6.87
2022-09-13T15:57:48.969Z,6.77
2022-09-13T16:00:22.725Z,6.53
2022-09-13T16:02:52.212Z,6.37
2022-09-13T16:05:20.762Z,6.70
2022-09-13T16:07:48.765Z,6.67
2022-09-13T16:10:20.016Z,6.63
2022-09-13T16:12:48.041Z,6.23
2022-09-13T16:15:17.129Z,7.17
2022-09-13T16:17:45.140Z,6.83
2022-09-13T16:20:17.234Z,6.60
2022-09-13T16:22:45.305Z,5.67
2022-09-13T16:25:14.148Z,6.97
2022-09-13T16:27:42.834Z,6.13
2022-09-13T16:30:13.978Z,6.37
2022-09-13T16:32:42.543Z,7.03
2022-09-13T16:35:11.624Z,7.07
2022-09-13T16:37:41.709Z,6.53
2022-09-13T16:40:11.978Z,8.67
2022-09-13T16:42:40.337Z,6.37
2022-09-13T16:45:09.296Z,7.17
2022-09-13T16:47:37.305Z,6.67
2022-09-13T16:50:06.211Z,6.73
2022-09-13T16:52:35.537Z,6.53
2022-09-13T16:55:06.465Z,7.10
2022-09-13T16:57:34.559Z,6.77
2022-09-13T17:00:04.363Z,6.90
2022-09-13T17:02:32.631Z,7.00
2022-09-13T17:05:00.711Z,7.37
2022-09-13T17:07:28.764Z,7.63
2022-09-13T17:09:56.852Z,7.87
2022-09-13T17:12:26.153Z,7.27
2022-09-13T17:14:55.107Z,7.47
2022-09-13T17:17:23.070Z,6.70
2022-09-13T17:19:51.035Z,7.70
2022-09-13T17:22:18.960Z,7.00
2022-09-13T17:24:46.843Z,8.17
2022-09-13T17:27:14.749Z,7.40
2022-09-13T17:29:44.133Z,8.17
2022-09-13T17:32:12.051Z,8.43
2022-09-13T17:34:39.969Z,8.60
2022-09-13T17:37:08.301Z,8.97
2022-09-13T17:39:36.280Z,8.43
2022-09-13T17:42:04.611Z,8.33
2022-09-13T17:44:32.491Z,9.53
2022-09-13T17:47:02.452Z,9.00
2022-09-13T17:49:30.324Z,8.37
2022-09-13T17:51:58.240Z,9.03
2022-09-13T17:54:26.644Z,8.77
2022-09-13T17:56:55.090Z,9.00
2022-09-13T17:59:23.449Z,10.70
2022-09-13T18:01:53.901Z,8.83
2022-09-13T18:04:24.624Z,9.20
2022-09-13T18:06:53.114Z,11.07
2022-09-13T18:09:21.666Z,9.23
2022-09-13T18:11:49.713Z,7.70
2022-09-13T18:14:19.280Z,8.30
2022-09-13T18:16:49.363Z,7.87
2022-09-13T18:19:17.578Z,9.93
2022-09-13T18:21:46.986Z,8.07
2022-09-13T18:24:14.835Z,7.77
2022-09-13T18:26:42.711Z,7.63
2022-09-13T18:29:13.151Z,7.27
2022-09-13T18:31:42.721Z,7.50
2022-09-13T18:34:12.753Z,7.40
2022-09-13T18:36:41.496Z,7.23
2022-09-13T18:39:24.159Z,11.77
2022-09-13T18:41:52.098Z,9.43
2022-09-13T18:44:20.523Z,7.97
2022-09-13T18:46:49.260Z,10.67
2022-09-13T18:49:18.495Z,8.03
2022-09-13T18:51:46.844Z,7.37
2022-09-13T18:54:18.083Z,8.30
2022-09-13T18:56:46.098Z,7.70
2022-09-13T18:59:14.477Z,10.50
2022-09-13T19:01:43.886Z,10.60
2022-09-13T19:04:14.490Z,10.13
2022-09-13T19:06:43.703Z,9.80
2022-09-13T19:09:12.251Z,8.87
2022-09-13T19:11:46.719Z,10.40
2022-09-13T19:14:16.815Z,8.03
2022-09-13T19:16:44.792Z,7.77
2022-09-13T19:19:12.712Z,8.80
2022-09-13T19:21:40.922Z,8.80
2022-09-13T19:24:14.858Z,8.53
2022-09-13T19:26:47.329Z,8.07
2022-09-13T19:29:17.320Z,8.00
2022-09-13T19:31:48.403Z,7.30
2022-09-13T19:34:17.770Z,8.30
2022-09-13T19:36:46.301Z,9.37
2022-09-13T19:39:14.304Z,8.47
2022-09-13T19:41:42.917Z,10.70
2022-09-13T19:44:14.311Z,9.23
2022-09-13T19:46:43.429Z,10.30
2022-09-13T19:49:14.400Z,9.90
2022-09-13T19:51:45.514Z,9.73
2022-09-13T19:54:18.842Z,9.70
2022-09-13T19:56:46.884Z,9.50
2022-09-13T19:59:19.775Z,9.13
2022-09-13T20:01:48.710Z,9.80
2022-09-13T20:04:18.056Z,8.97
2022-09-13T20:06:47.409Z,9.03
2022-09-13T20:09:17.107Z,9.07
2022-09-13T20:11:45.612Z,8.90
2022-09-13T20:14:14.562Z,9.17
2022-09-13T20:16:44.080Z,11.77
2022-09-13T20:19:39.371Z,8.93
2022-09-13T20:22:07.078Z,8.57
2022-09-13T20:24:34.970Z,10.33
2022-09-13T20:27:02.861Z,8.33
2022-09-13T20:29:31.621Z,8.13
2022-09-13T20:32:02.260Z,9.00
2022-09-13T20:34:30.203Z,9.13
2022-09-13T20:36:58.152Z,9.50
2022-09-13T20:39:26.037Z,10.90
2022-09-13T20:41:54.848Z,9.97
2022-09-13T20:44:22.815Z,9.17
2022-09-13T20:46:50.799Z,8.80
2022-09-13T20:49:20.219Z,8.43
2022-09-13T20:51:50.089Z,9.30
2022-09-13T20:54:17.996Z,8.33
2022-09-13T20:56:46.389Z,9.23
2022-09-13T20:59:14.616Z,8.93
2022-09-13T21:01:42.813Z,9.70
2022-09-13T21:04:11.214Z,9.70
2022-09-13T21:07:02.679Z,10.47
2022-09-13T21:09:29.903Z,9.23
2022-09-13T21:11:57.770Z,9.83
2022-09-13T21:14:25.795Z,9.87
2022-09-13T21:16:55.213Z,8.77
2022-09-13T21:19:23.224Z,9.60
2022-09-13T21:21:52.539Z,8.73
2022-09-13T21:24:20.465Z,9.27
2022-09-13T21:26:48.339Z,9.43
2022-09-13T21:29:16.458Z,9.30
2022-09-13T21:31:44.366Z,9.57
2022-09-13T21:34:15.899Z,9.53
2022-09-13T21:36:44.952Z,9.23
2022-09-13T21:39:15.081Z,10.33
2022-09-13T21:41:43.776Z,10.23
2022-09-13T21:44:12.063Z,10.00
2022-09-13T21:46:41.425Z,9.30
2022-09-13T21:49:11.428Z,9.37
2022-09-13T21:51:41.443Z,9.80
2022-09-13T21:54:12.028Z,9.90
2022-09-13T21:56:43.307Z,11.23
2022-09-13T21:59:15.570Z,10.53
2022-09-13T22:01:46.812Z,11.27
2022-09-13T22:04:17.720Z,10.20
2022-09-13T22:06:46.724Z,11.10
2022-09-13T22:09:15.902Z,10.47
2022-09-13T22:11:46.761Z,10.57
2022-09-13T22:14:16.726Z,11.77
2022-09-13T22:16:46.828Z,10.67
2022-09-13T22:19:17.269Z,10.97
2022-09-13T22:21:46.487Z,10.40
2022-09-13T22:24:16.378Z,9.73
2022-09-13T22:26:46.815Z,9.27
2022-09-13T22:29:16.169Z,10.33
2022-09-13T22:31:47.062Z,10.87
2022-09-13T22:34:17.453Z,10.10
2022-09-13T22:36:46.047Z,9.90
2022-09-13T22:39:15.936Z,10.53
2022-09-13T22:41:46.196Z,10.40
2022-09-13T22:44:14.335Z,9.50
2022-09-13T22:46:44.272Z,9.50
2022-09-13T22:49:14.353Z,11.00
2022-09-13T22:51:45.111Z,10.77
2022-09-13T22:54:13.196Z,9.40
2022-09-13T22:56:41.444Z,9.13
2022-09-13T22:59:13.974Z,10.87
2022-09-13T23:01:42.138Z,10.63
2022-09-13T23:04:10.408Z,15.47
2022-09-13T23:06:38.865Z,11.77
2022-09-13T23:09:08.712Z,12.97
2022-09-13T23:11:38.596Z,11.93
2022-09-13T23:14:08.340Z,11.67
2022-09-13T23:16:39.638Z,11.33
2022-09-13T23:19:08.009Z,11.63
2022-09-13T23:21:37.943Z,11.47
2022-09-13T23:24:09.105Z,11.73
2022-09-13T23:26:36.984Z,11.17
2022-09-13T23:29:05.878Z,9.93
2022-09-13T23:31:35.714Z,9.77
2022-09-13T23:34:07.056Z,11.17
2022-09-13T23:36:37.152Z,11.13
2022-09-13T23:39:07.960Z,12.83
2022-09-13T23:41:36.493Z,10.50
2022-09-13T23:44:05.204Z,11.63
2022-09-13T23:46:33.277Z,11.00
2022-09-13T23:49:01.200Z,11.77
2022-09-13T23:51:30.619Z,11.40
2022-09-13T23:54:01.058Z,11.13
2022-09-13T23:56:31.604Z,11.33
2022-09-13T23:59:00.897Z,11.43
